Time;durP1;ratioP1;P1;durP2;ratioP2;P2;SDS_P1;SDS_P2;PMS_P1;PMS_P2;Temp;Humidity;BMP_temperature;BMP_pressure;BME280_temperature;BME280_humidity;BME280_pressure;Samples;Min_cycle;Max_cycle;Signal;HPM_P1;HPM_P2
2022/03/10 00:01:19;;;;;;;18.08;13.85;;;;;;;3.78;59.74;99769.53;5021538;28;20071;-80
2022/03/10 00:03:44;;;;;;;18.73;12.93;;;;;;;3.73;59.71;99765.81;5020570;28;20041;-80
2022/03/10 00:06:09;;;;;;;18.85;12.20;;;;;;;3.66;59.87;99764.91;5008127;28;20375;-80
2022/03/10 00:08:35;;;;;;;19.70;12.05;;;;;;;3.69;60.07;99772.47;5022991;28;20052;-80
2022/03/10 00:11:00;;;;;;;17.00;12.00;;;;;;;3.78;59.77;99785.38;5026791;28;20048;-80
2022/03/10 00:13:29;;;;;;;19.75;12.88;;;;;;;3.60;60.24;99768.25;5034093;28;20810;-81
2022/03/10 00:15:55;;;;;;;19.33;12.32;;;;;;;3.69;59.86;99777.75;5034608;28;20033;-80
2022/03/10 00:18:20;;;;;;;17.42;11.52;;;;;;;3.60;59.88;99773.53;5020670;28;20033;-81
2022/03/10 00:20:46;;;;;;;19.80;13.13;;;;;;;3.73;59.94;99794.84;5031733;28;20405;-81
2022/03/10 00:23:11;;;;;;;19.52;12.27;;;;;;;3.71;60.29;99804.78;5034525;28;20029;-81
2022/03/10 00:25:37;;;;;;;17.73;11.48;;;;;;;3.69;60.06;99814.69;5037527;28;20033;-80
2022/03/10 00:28:03;;;;;;;21.80;12.40;;;;;;;3.60;60.39;99799.94;5037110;28;20034;-81
2022/03/10 00:30:28;;;;;;;21.08;12.82;;;;;;;3.47;60.47;99779.44;5035552;28;20055;-80
2022/03/10 00:32:54;;;;;;;18.33;11.77;;;;;;;3.56;60.10;99801.31;4997299;28;20038;-81
2022/03/10 00:35:24;;;;;;;16.13;12.63;;;;;;;3.66;60.44;99815.88;5015605;28;20043;-81
2022/03/10 00:37:50;;;;;;;17.50;12.20;;;;;;;3.54;60.57;99806.75;5035621;28;20055;-81
2022/03/10 00:40:16;;;;;;;19.70;13.00;;;;;;;3.56;60.50;99806.59;5026830;28;20672;-81
2022/03/10 00:42:42;;;;;;;15.65;12.25;;;;;;;3.63;60.26;99825.94;5020285;28;20457;-81
2022/03/10 00:45:08;;;;;;;17.05;11.65;;;;;;;3.61;60.30;99834.06;5033111;28;20343;-80
2022/03/10 00:47:34;;;;;;;19.77;12.18;;;;;;;3.60;60.47;99834.25;5033347;28;20051;-80
2022/03/10 00:50:00;;;;;;;18.48;11.63;;;;;;;3.59;60.32;99829.97;4998176;28;20504;-80
2022/03/10 00:52:26;;;;;;;17.45;11.63;;;;;;;3.48;60.58;99812.75;5032175;28;20040;-80
2022/03/10 00:54:51;;;;;;;16.38;11.40;;;;;;;3.46;60.63;99814.75;5029307;28;20021;-80
2022/03/10 00:57:17;;;;;;;17.38;11.50;;;;;;;3.52;60.79;99821.09;5017972;28;20025;-80
2022/03/10 00:59:42;;;;;;;18.00;12.90;;;;;;;3.48;60.66;99811.91;5040568;28;20030;-80
2022/03/10 01:02:07;;;;;;;18.10;12.38;;;;;;;3.47;60.38;99826.13;5018555;28;20057;-80
2022/03/10 01:04:33;;;;;;;17.35;12.05;;;;;;;3.44;61.09;99823.84;4998969;28;20025;-80
2022/03/10 01:06:58;;;;;;;19.75;12.13;;;;;;;3.49;60.73;99843.44;5042124;28;20121;-80
2022/03/10 01:09:23;;;;;;;15.70;11.25;;;;;;;3.35;60.75;99819.63;5016599;28;20032;-81
2022/03/10 01:11:48;;;;;;;18.65;11.38;;;;;;;3.47;60.66;99839.31;4996870;28;20095;-81
2022/03/10 01:14:14;;;;;;;19.02;12.43;;;;;;;3.42;60.34;99833.75;5015420;28;20135;-81
2022/03/10 01:16:39;;;;;;;17.77;11.80;;;;;;;3.35;60.61;99819.63;5007204;28;20127;-80
2022/03/10 01:19:04;;;;;;;17.17;11.00;;;;;;;3.41;60.58;99838.19;5035106;28;20035;-81
2022/03/10 01:21:30;;;;;;;16.67;11.43;;;;;;;3.35;60.81;99824.91;5035889;28;20108;-81
2022/03/10 01:23:55;;;;;;;15.52;11.30;;;;;;;3.33;60.87;99833.00;5013084;28;20037;-81
2022/03/10 01:26:20;;;;;;;18.92;12.23;;;;;;;3.29;60.43;99822.97;5010093;28;20448;-81
2022/03/10 01:28:46;;;;;;;15.90;11.50;;;;;;;3.30;60.72;99832.56;5037813;28;20039;-81
2022/03/10 01:31:11;;;;;;;18.27;11.23;;;;;;;3.19;60.96;99807.38;5039528;28;20082;-80
2022/03/10 01:33:36;;;;;;;20.95;12.23;;;;;;;2.99;60.52;99785.97;5015431;28;20124;-80
2022/03/10 01:36:02;;;;;;;18.27;12.10;;;;;;;3.24;60.57;99835.88;5034624;28;20378;-80
2022/03/10 01:38:28;;;;;;;16.35;12.30;;;;;;;3.27;60.79;99840.81;5036460;28;20082;-80
2022/03/10 01:40:53;;;;;;;16.60;11.63;;;;;;;3.20;60.76;99831.94;5016486;28;20033;-80
2022/03/10 01:43:18;;;;;;;19.45;11.18;;;;;;;3.12;60.34;99818.84;4994762;28;20441;-81
2022/03/10 01:45:44;;;;;;;19.00;11.48;;;;;;;3.22;60.53;99846.59;5029015;28;20071;-81
2022/03/10 01:48:09;;;;;;;18.67;12.15;;;;;;;3.11;60.31;99838.28;5029331;28;20840;-80
2022/03/10 01:50:34;;;;;;;19.27;12.10;;;;;;;3.13;60.84;99841.56;5019667;28;20068;-80
2022/03/10 01:53:01;;;;;;;17.13;11.63;;;;;;;3.17;60.53;99850.78;5013515;28;20030;-80
2022/03/10 01:55:27;;;;;;;15.05;10.80;;;;;;;3.17;60.69;99851.59;5031138;28;20041;-80
2022/03/10 01:57:52;;;;;;;20.80;12.23;;;;;;;3.10;60.65;99844.56;5031560;28;20030;-81
2022/03/10 02:00:18;;;;;;;17.60;10.55;;;;;;;3.00;61.06;99840.34;5036262;28;20104;-81
2022/03/10 02:02:43;;;;;;;17.80;11.02;;;;;;;2.95;61.05;99826.84;5030906;28;20325;-80
2022/03/10 02:05:09;;;;;;;14.73;11.15;;;;;;;3.12;61.05;99859.22;5033025;28;20083;-81
2022/03/10 02:10:18;;;;;;;14.88;10.98;;;;;;;3.01;61.15;99841.19;5033384;28;20041;-81
2022/03/10 02:12:48;;;;;;;15.90;10.93;;;;;;;3.10;61.28;99849.84;5009478;28;20429;-81
2022/03/10 02:18:08;;;;;;;17.08;11.55;;;;;;;2.89;61.19;99826.75;5036136;28;20033;-81
2022/03/10 02:20:34;;;;;;;16.55;11.93;;;;;;;3.04;61.13;99852.19;5016627;28;20116;-80
2022/03/10 02:23:00;;;;;;;14.68;10.52;;;;;;;3.03;60.91;99852.38;5032208;28;20042;-81
2022/03/10 02:25:27;;;;;;;18.75;11.48;;;;;;;2.98;60.81;99839.69;5007435;28;20452;-81
2022/03/10 02:27:55;;;;;;;17.55;11.50;;;;;;;2.96;61.05;99840.88;5026068;28;20025;-81
2022/03/10 02:30:22;;;;;;;16.60;11.23;;;;;;;3.02;61.33;99846.25;5036526;28;20033;-80
2022/03/10 02:32:48;;;;;;;16.33;10.52;;;;;;;2.95;61.39;99833.94;5032950;28;20031;-81
2022/03/10 02:35:14;;;;;;;17.30;10.73;;;;;;;2.90;61.66;99831.84;5030311;28;20123;-80
2022/03/10 02:37:40;;;;;;;16.98;11.68;;;;;;;2.90;61.33;99837.13;5037324;28;20036;-81
2022/03/10 02:40:06;;;;;;;16.55;11.23;;;;;;;2.85;61.54;99822.81;5033815;28;20033;-81
2022/03/10 02:42:32;;;;;;;15.98;11.57;;;;;;;2.93;61.22;99836.75;5022113;28;20036;-80
2022/03/10 02:44:58;;;;;;;16.13;11.52;;;;;;;2.73;61.32;99805.78;5031306;28;20037;-80
2022/03/10 02:47:24;;;;;;;15.55;11.65;;;;;;;2.88;61.36;99830.38;5035589;28;20104;-80
2022/03/10 02:49:49;;;;;;;16.77;10.63;;;;;;;2.88;61.45;99836.47;5024325;28;20063;-80
2022/03/10 02:52:15;;;;;;;14.82;10.80;;;;;;;2.81;61.55;99825.00;5036918;28;20442;-80
2022/03/10 02:54:40;;;;;;;18.13;11.75;;;;;;;2.87;61.47;99839.28;5037833;28;20200;-80
2022/03/10 02:57:05;;;;;;;17.17;10.43;;;;;;;2.86;61.82;99842.94;5030568;28;20049;-81
2022/03/10 02:59:31;;;;;;;15.52;11.07;;;;;;;2.73;61.68;99818.97;5030564;28;20039;-81
2022/03/10 03:01:57;;;;;;;18.35;10.55;;;;;;;2.78;61.40;99830.59;5029521;28;20108;-82
2022/03/10 03:04:23;;;;;;;17.75;11.95;;;;;;;2.80;61.30;99828.63;5015488;28;20064;-80
2022/03/10 03:06:48;;;;;;;16.80;11.38;;;;;;;2.69;61.23;99813.19;5034818;28;20056;-81
2022/03/10 03:09:13;;;;;;;17.10;11.02;;;;;;;2.72;61.89;99818.13;5042154;28;20033;-80
2022/03/10 03:11:39;;;;;;;14.82;11.50;;;;;;;2.71;61.76;99819.13;5001474;28;20086;-81
2022/03/10 03:14:04;;;;;;;17.52;11.55;;;;;;;2.72;61.57;99822.56;5019420;28;20029;-80
2022/03/10 03:16:30;;;;;;;15.27;11.15;;;;;;;2.59;61.35;99802.06;5020553;28;20032;-80
2022/03/10 03:18:56;;;;;;;14.50;10.68;;;;;;;2.67;61.51;99817.00;5034225;28;20448;-80
2022/03/10 03:21:23;;;;;;;16.60;11.18;;;;;;;2.62;61.81;99806.97;5036922;28;20112;-81
2022/03/10 03:23:49;;;;;;;13.55;10.05;;;;;;;2.68;61.44;99819.47;5040701;28;20032;-80
2022/03/10 03:26:15;;;;;;;16.52;11.23;;;;;;;2.64;61.51;99815.56;5038516;28;20558;-80
2022/03/10 03:28:41;;;;;;;15.27;11.43;;;;;;;2.55;61.29;99803.41;5019386;28;20067;-80
2022/03/10 03:31:07;;;;;;;18.63;12.23;;;;;;;2.60;61.82;99816.06;5033736;28;20044;-80
2022/03/10 03:33:32;;;;;;;16.30;10.95;;;;;;;2.66;61.22;99833.81;5035921;28;20041;-80
2022/03/10 03:35:58;;;;;;;18.77;11.18;;;;;;;2.58;61.53;99823.34;5037580;28;20159;-80
2022/03/10 03:38:24;;;;;;;17.02;11.85;;;;;;;2.63;61.86;99827.06;5034310;28;20052;-81
2022/03/10 03:40:50;;;;;;;18.05;11.48;;;;;;;2.63;61.72;99834.97;5044691;28;20115;-80
2022/03/10 03:43:15;;;;;;;18.27;10.90;;;;;;;2.52;61.23;99814.28;5041012;28;20025;-81
2022/03/10 03:45:41;;;;;;;18.58;12.25;;;;;;;2.48;61.33;99823.53;5036195;28;20037;-80
2022/03/10 03:48:06;;;;;;;18.92;11.32;;;;;;;2.47;61.50;99813.97;5039723;28;20039;-80
2022/03/10 03:50:31;;;;;;;18.48;11.07;;;;;;;2.47;61.52;99821.88;5035626;28;20112;-80
2022/03/10 03:52:57;;;;;;;16.30;11.50;;;;;;;2.45;61.46;99820.41;5048163;28;20460;-80
2022/03/10 03:55:22;;;;;;;15.75;11.45;;;;;;;2.56;61.87;99852.47;5031891;28;20037;-80
2022/03/10 03:57:47;;;;;;;17.30;11.32;;;;;;;2.54;61.40;99851.00;5035228;28;20116;-81
2022/03/10 04:00:15;;;;;;;17.95;11.50;;;;;;;2.54;61.94;99849.19;5035090;28;20029;-80
2022/03/10 04:02:41;;;;;;;18.00;11.38;;;;;;;2.39;62.02;99834.28;5036879;28;20029;-81
2022/03/10 04:05:07;;;;;;;17.92;10.98;;;;;;;2.42;61.83;99845.31;5014387;28;20040;-80
2022/03/10 04:07:33;;;;;;;16.48;11.40;;;;;;;2.50;61.42;99862.88;5037556;28;20032;-82
2022/03/10 04:09:58;;;;;;;16.70;10.93;;;;;;;2.37;61.76;99845.00;5031429;28;20033;-80
2022/03/10 04:12:23;;;;;;;18.50;11.35;;;;;;;2.41;62.22;99848.94;5013740;28;20100;-80
2022/03/10 04:14:49;;;;;;;17.50;10.77;;;;;;;2.45;61.80;99863.38;4994909;28;20033;-80
2022/03/10 04:17:14;;;;;;;15.30;10.68;;;;;;;2.46;62.01;99858.94;5029649;28;20021;-80
2022/03/10 04:19:40;;;;;;;17.38;11.73;;;;;;;2.43;61.64;99857.47;5013115;28;20439;-81
2022/03/10 04:22:06;;;;;;;16.52;11.50;;;;;;;2.19;61.56;99824.16;5040658;28;20030;-81
2022/03/10 04:24:31;;;;;;;14.95;10.52;;;;;;;2.21;61.93;99829.25;5028785;28;20408;-81
2022/03/10 04:26:56;;;;;;;19.08;11.18;;;;;;;2.30;61.97;99851.94;5033914;28;20029;-80
2022/03/10 04:29:22;;;;;;;17.98;11.32;;;;;;;2.29;61.99;99845.03;5031336;28;20033;-80
2022/03/10 04:31:47;;;;;;;15.48;11.70;;;;;;;2.24;61.69;99834.19;5032768;28;20033;-80
2022/03/10 04:34:13;;;;;;;15.60;10.80;;;;;;;2.36;61.70;99859.16;5032983;28;20397;-81
2022/03/10 04:36:39;;;;;;;18.80;11.32;;;;;;;2.20;61.76;99840.78;5011716;28;20504;-81
2022/03/10 04:39:04;;;;;;;13.85;11.30;;;;;;;2.33;62.17;99866.56;5031778;28;20029;-80
2022/03/10 04:41:30;;;;;;;20.35;11.27;;;;;;;2.31;62.16;99869.41;5032089;28;20108;-80
2022/03/10 04:43:56;;;;;;;18.85;11.60;;;;;;;2.13;61.45;99840.66;5018191;28;20029;-80
2022/03/10 04:46:21;;;;;;;14.73;10.48;;;;;;;2.24;61.97;99855.25;5033808;28;20033;-81
2022/03/10 04:48:49;;;;;;;18.63;11.70;;;;;;;2.12;61.87;99844.25;4996268;28;20052;-80
2022/03/10 04:51:15;;;;;;;15.00;11.18;;;;;;;1.69;61.95;99775.47;5033436;28;20026;-81
2022/03/10 04:53:40;;;;;;;16.52;11.65;;;;;;;2.26;61.85;99866.44;5042484;28;20041;-80
2022/03/10 04:56:06;;;;;;;15.48;11.35;;;;;;;2.21;61.89;99860.84;5033100;28;20397;-80
2022/03/10 04:58:32;;;;;;;14.43;10.43;;;;;;;2.20;62.41;99856.59;5035476;28;20079;-80
2022/03/10 05:00:57;;;;;;;17.42;11.70;;;;;;;2.20;61.66;99864.50;5032892;28;20041;-81
2022/03/10 05:03:22;;;;;;;18.65;11.32;;;;;;;2.19;61.67;99860.19;5031376;28;20036;-80
2022/03/10 05:05:48;;;;;;;20.10;11.50;;;;;;;2.21;62.06;99879.28;5036838;28;20042;-79
2022/03/10 05:08:13;;;;;;;18.48;11.65;;;;;;;2.16;61.65;99865.81;5034618;28;20393;-79
2022/03/10 05:10:39;;;;;;;21.08;12.40;;;;;;;2.07;62.16;99859.78;5035020;28;20025;-79
2022/03/10 05:13:04;;;;;;;16.55;10.70;;;;;;;2.20;62.21;99888.19;5015601;28;20123;-79
2022/03/10 05:15:31;;;;;;;17.33;11.68;;;;;;;2.22;61.54;99894.09;5043284;28;20092;-79
2022/03/10 05:18:01;;;;;;;15.45;10.82;;;;;;;2.01;61.89;99854.34;5037764;28;20056;-79
2022/03/10 05:20:28;;;;;;;16.58;11.32;;;;;;;2.06;62.29;99863.38;5034418;28;20126;-80
2022/03/10 05:22:59;;;;;;;16.60;10.63;;;;;;;2.09;61.78;99873.59;5015231;28;20045;-79
2022/03/10 05:25:30;;;;;;;15.82;10.18;;;;;;;2.08;62.30;99873.72;5035488;28;20026;-80
2022/03/10 05:27:56;;;;;;;16.48;11.48;;;;;;;2.10;62.36;99883.09;5017016;28;20183;-79
2022/03/10 05:30:21;;;;;;;18.23;11.07;;;;;;;2.01;61.88;99873.59;5014727;28;20033;-80
2022/03/10 05:32:47;;;;;;;17.10;10.75;;;;;;;2.14;62.09;99886.25;5034691;28;20068;-80
2022/03/10 05:35:14;;;;;;;16.77;11.27;;;;;;;2.04;62.66;99885.59;5033590;28;20393;-79
2022/03/10 05:37:40;;;;;;;14.23;10.80;;;;;;;2.12;61.90;99907.47;5031685;28;20027;-80
2022/03/10 05:40:08;;;;;;;15.70;11.10;;;;;;;2.14;61.89;99905.47;5032267;28;20040;-80
2022/03/10 05:42:33;;;;;;;17.48;10.52;;;;;;;2.01;62.24;99878.84;5016279;28;20037;-80
2022/03/10 05:44:58;;;;;;;16.50;10.10;;;;;;;2.12;62.11;99899.56;5032572;28;20594;-79
2022/03/10 05:47:24;;;;;;;14.80;11.00;;;;;;;1.91;62.64;99875.59;5036543;28;20041;-81
2022/03/10 05:49:49;;;;;;;17.02;10.88;;;;;;;2.06;62.50;99902.88;5015320;28;20033;-80
2022/03/10 05:52:15;;;;;;;15.77;10.95;;;;;;;2.08;62.95;99916.69;4999419;28;20033;-80
2022/03/10 05:54:40;;;;;;;18.55;12.20;;;;;;;2.00;62.73;99898.28;5017786;28;20105;-80
2022/03/10 05:57:06;;;;;;;16.13;10.95;;;;;;;1.96;62.67;99890.88;5034028;28;20116;-80
2022/03/10 05:59:31;;;;;;;15.23;11.07;;;;;;;1.89;62.62;99888.09;5017192;28;20065;-80
2022/03/10 06:01:56;;;;;;;15.15;10.32;;;;;;;2.02;62.78;99913.91;5015633;28;20048;-80
2022/03/10 06:04:21;;;;;;;16.55;10.25;;;;;;;2.04;62.37;99909.28;5025696;28;20513;-81
2022/03/10 06:06:47;;;;;;;15.30;10.70;;;;;;;1.91;62.38;99893.19;5023378;28;20079;-80
2022/03/10 06:09:12;;;;;;;13.77;10.57;;;;;;;2.01;62.56;99909.66;5048211;28;20036;-81
2022/03/10 06:11:38;;;;;;;15.68;9.70;;;;;;;2.05;62.63;99918.84;5015956;28;20040;-80
2022/03/10 06:14:03;;;;;;;16.58;10.82;;;;;;;2.05;62.79;99917.00;5030527;28;20033;-81
2022/03/10 06:16:29;;;;;;;15.50;10.50;;;;;;;2.03;62.47;99912.94;5034463;28;20025;-81
2022/03/10 06:18:55;;;;;;;13.73;10.07;;;;;;;2.07;62.95;99919.50;5031631;28;20045;-80
2022/03/10 06:21:21;;;;;;;17.38;10.77;;;;;;;2.06;62.34;99915.22;5033924;28;20462;-81
2022/03/10 06:23:47;;;;;;;15.77;8.88;;;;;;;1.92;62.34;99900.91;5030242;28;20048;-80
2022/03/10 06:26:14;;;;;;;18.65;10.55;;;;;;;2.02;62.34;99916.53;5038876;28;20024;-81
2022/03/10 06:28:39;;;;;;;16.90;11.35;;;;;;;2.09;62.87;99928.88;5033070;28;20061;-81
2022/03/10 06:31:05;;;;;;;16.35;10.48;;;;;;;2.10;62.98;99927.03;5028373;28;20053;-80
2022/03/10 06:33:30;;;;;;;15.55;9.70;;;;;;;1.95;62.67;99905.84;5022209;28;20427;-82
2022/03/10 06:35:55;;;;;;;17.05;10.35;;;;;;;1.93;62.60;99899.09;5032348;28;20037;-82
2022/03/10 06:38:21;;;;;;;14.07;10.30;;;;;;;1.96;62.46;99907.50;5031960;28;20084;-81
2022/03/10 06:40:46;;;;;;;14.45;10.30;;;;;;;2.07;63.11;99930.03;5014685;28;20034;-80
2022/03/10 06:43:11;;;;;;;21.08;9.70;;;;;;;2.18;62.70;99946.28;5031295;28;20035;-81
2022/03/10 06:45:38;;;;;;;17.50;9.85;;;;;;;2.21;63.07;99947.75;5039393;28;20032;-81
2022/03/10 06:48:03;;;;;;;16.55;9.63;;;;;;;2.12;62.69;99932.97;5018805;28;20030;-80
2022/03/10 06:50:29;;;;;;;16.35;9.52;;;;;;;2.10;62.94;99924.41;5035454;28;20105;-80
2022/03/10 06:52:56;;;;;;;18.73;10.38;;;;;;;2.23;63.23;99951.88;5034935;28;20037;-80
2022/03/10 06:55:23;;;;;;;15.63;9.40;;;;;;;2.06;63.35;99925.75;5036689;28;20030;-80
2022/03/10 06:57:49;;;;;;;14.07;8.98;;;;;;;2.22;63.12;99946.78;5037079;28;20093;-80
2022/03/10 07:00:14;;;;;;;16.35;9.88;;;;;;;2.18;62.87;99935.75;5035233;28;20037;-80
2022/03/10 07:02:40;;;;;;;17.52;10.27;;;;;;;2.20;62.90;99946.97;5035271;28;20040;-80
2022/03/10 07:05:07;;;;;;;15.43;10.00;;;;;;;2.35;63.56;99970.78;5035728;28;20037;-80
2022/03/10 07:07:32;;;;;;;13.77;9.23;;;;;;;2.24;63.58;99960.59;5034001;28;20037;-80
2022/03/10 07:09:58;;;;;;;15.32;9.75;;;;;;;2.25;63.19;99951.69;5035039;28;20029;-81
2022/03/10 07:12:26;;;;;;;16.58;9.90;;;;;;;2.34;63.68;99960.44;5034665;28;20065;-80
2022/03/10 07:14:51;;;;;;;17.65;9.65;;;;;;;2.38;63.45;99967.00;5017446;28;20556;-80
2022/03/10 07:17:16;;;;;;;18.65;10.02;;;;;;;2.27;63.45;99936.56;5033940;28;20112;-80
2022/03/10 07:19:42;;;;;;;15.52;10.27;;;;;;;2.41;63.36;99962.19;5033731;28;20033;-80
2022/03/10 07:22:07;;;;;;;12.95;9.05;;;;;;;2.34;63.40;99944.63;5034502;28;20112;-80
2022/03/10 07:24:32;;;;;;;12.70;9.25;;;;;;;2.38;63.83;99944.09;5033489;28;20108;-81
2022/03/10 07:26:57;;;;;;;13.80;9.18;;;;;;;2.48;64.02;99962.34;5017501;28;20499;-81
2022/03/10 07:29:23;;;;;;;13.30;9.10;;;;;;;2.42;63.83;99949.84;5034372;28;20076;-80
2022/03/10 07:31:48;;;;;;;15.65;11.38;;;;;;;2.41;63.88;99945.56;5035005;28;20108;-80
2022/03/10 07:34:13;;;;;;;13.35;9.82;;;;;;;2.42;63.98;99945.41;5017669;28;20029;-81
2022/03/10 07:36:40;;;;;;;16.83;9.77;;;;;;;2.59;63.83;99962.81;5051390;28;20482;-80
2022/03/10 07:39:06;;;;;;;18.27;9.63;;;;;;;2.53;63.94;99958.22;5001864;28;20037;-80
2022/03/10 07:41:31;;;;;;;13.60;10.00;;;;;;;2.66;63.45;99968.22;5034266;28;20030;-80
2022/03/10 07:43:57;;;;;;;13.88;9.70;;;;;;;2.68;63.43;99971.50;5034334;28;20469;-80
2022/03/10 07:46:23;;;;;;;11.88;9.07;;;;;;;2.72;63.67;99972.81;5017657;28;20030;-81
2022/03/10 07:48:50;;;;;;;13.88;9.18;;;;;;;2.76;63.74;99976.75;5033910;28;20036;-81
2022/03/10 07:51:15;;;;;;;13.93;9.43;;;;;;;2.78;63.79;99982.66;5033756;28;20393;-81
2022/03/10 07:53:41;;;;;;;15.80;11.00;;;;;;;2.82;63.39;99978.69;5032779;28;20037;-81
2022/03/10 07:56:06;;;;;;;11.80;8.95;;;;;;;2.64;63.91;99939.41;5014152;28;20094;-80
2022/03/10 07:58:32;;;;;;;13.50;9.07;;;;;;;2.86;64.01;99986.09;5013982;28;20026;-81
2022/03/10 08:00:58;;;;;;;14.63;9.05;;;;;;;2.90;63.62;99968.97;5028490;28;20108;-82
2022/03/10 08:03:23;;;;;;;11.98;8.52;;;;;;;2.92;64.04;99968.78;5017221;28;20037;-80
2022/03/10 08:05:50;;;;;;;13.00;9.95;;;;;;;2.96;64.03;99981.44;5033678;28;20029;-80
2022/03/10 08:08:16;;;;;;;13.93;9.35;;;;;;;2.84;63.93;99950.38;5018063;28;20033;-81
2022/03/10 08:10:42;;;;;;;14.60;9.05;;;;;;;2.98;64.20;99968.91;5034281;28;20030;-80
2022/03/10 08:13:07;;;;;;;13.52;9.15;;;;;;;2.94;63.72;99956.25;5033649;28;20060;-80
2022/03/10 08:15:32;;;;;;;15.27;8.95;;;;;;;3.09;63.97;99970.34;5034016;28;20065;-80
2022/03/10 08:17:58;;;;;;;18.52;10.73;;;;;;;2.93;63.83;99941.41;5033724;28;20026;-80
2022/03/10 08:20:23;;;;;;;15.05;10.00;;;;;;;3.01;63.96;99947.44;5035002;28;20037;-80
2022/03/10 08:22:49;;;;;;;14.48;9.63;;;;;;;3.15;64.10;99960.91;5032787;28;20029;-81
2022/03/10 08:25:15;;;;;;;13.23;9.95;;;;;;;3.08;64.18;99946.78;5033119;28;20030;-80
2022/03/10 08:27:40;;;;;;;13.40;9.48;;;;;;;3.24;64.36;99973.88;5034811;28;20030;-81
2022/03/10 08:30:06;;;;;;;17.25;10.05;;;;;;;3.17;64.24;99957.09;5016836;28;20090;-81
2022/03/10 08:32:32;;;;;;;13.10;9.25;;;;;;;3.27;63.68;99967.44;5033333;28;20025;-80
2022/03/10 08:34:57;;;;;;;15.02;10.15;;;;;;;3.24;63.90;99952.78;5033655;28;20036;-81
2022/03/10 08:37:23;;;;;;;15.30;10.38;;;;;;;3.39;63.76;99971.31;5017459;28;20481;-80
2022/03/10 08:39:48;;;;;;;16.52;10.30;;;;;;;3.43;64.16;99965.50;5016233;28;20044;-80
2022/03/10 08:42:13;;;;;;;14.75;10.35;;;;;;;3.38;64.08;99954.66;5033165;28;20025;-81
2022/03/10 08:44:39;;;;;;;13.55;9.38;;;;;;;3.50;63.91;99963.81;5016716;28;20037;-81
2022/03/10 08:47:04;;;;;;;12.05;8.85;;;;;;;3.19;64.00;99910.25;5034014;28;20115;-80
2022/03/10 08:49:30;;;;;;;16.08;9.00;;;;;;;3.52;63.80;99956.53;5034794;28;20319;-80
2022/03/10 08:51:55;;;;;;;16.77;10.63;;;;;;;3.60;63.52;99959.09;5032927;28;20039;-80
2022/03/10 08:54:21;;;;;;;20.98;9.98;;;;;;;3.56;64.31;99939.34;5016057;28;20037;-80
2022/03/10 08:56:46;;;;;;;14.35;10.57;;;;;;;3.70;63.83;99953.59;5033012;28;20412;-80
2022/03/10 08:59:12;;;;;;;18.17;10.32;;;;;;;3.59;64.31;99939.00;5016291;28;20115;-81
2022/03/10 09:01:38;;;;;;;14.70;9.07;;;;;;;3.68;64.04;99940.59;5032583;28;20029;-81
2022/03/10 09:04:03;;;;;;;14.93;10.10;;;;;;;3.79;63.99;99961.28;5016227;28;20033;-81
2022/03/10 09:06:29;;;;;;;16.83;10.93;;;;;;;3.70;64.02;99949.16;5032783;28;20260;-81
2022/03/10 09:08:54;;;;;;;15.20;10.40;;;;;;;3.77;64.14;99954.53;5016921;28;20528;-80
2022/03/10 09:11:20;;;;;;;14.52;10.27;;;;;;;3.86;63.93;99961.41;5033940;28;20033;-80
2022/03/10 09:13:48;;;;;;;18.58;10.38;;;;;;;3.93;63.83;99959.69;5032829;28;20033;-80
2022/03/10 09:16:21;;;;;;;16.58;11.35;;;;;;;3.86;64.20;99937.63;5033220;28;20087;-81
2022/03/10 09:18:48;;;;;;;17.20;10.23;;;;;;;3.98;64.04;99946.75;5045650;28;20253;-81
2022/03/10 09:21:14;;;;;;;13.65;10.30;;;;;;;4.01;63.75;99950.84;5032640;28;20095;-80
2022/03/10 09:23:40;;;;;;;18.83;10.30;;;;;;;3.96;64.03;99932.91;5032220;28;20029;-80
2022/03/10 09:26:05;;;;;;;15.52;11.60;;;;;;;3.90;63.83;99915.16;5032562;28;20039;-81
2022/03/10 09:28:31;;;;;;;16.42;10.07;;;;;;;4.00;64.34;99925.47;5014903;28;20486;-81
2022/03/10 09:30:56;;;;;;;14.45;9.77;;;;;;;4.14;64.19;99943.97;5033073;28;20060;-81
2022/03/10 09:33:21;;;;;;;18.17;10.68;;;;;;;3.90;63.83;99893.19;5033349;28;20040;-80
2022/03/10 09:35:47;;;;;;;16.73;10.63;;;;;;;4.20;64.29;99940.59;5032754;28;21358;-80
2022/03/10 09:38:12;;;;;;;14.23;10.07;;;;;;;4.19;64.20;99931.03;5032660;28;20025;-81
2022/03/10 09:40:38;;;;;;;18.08;12.30;;;;;;;4.25;64.55;99918.91;5032781;28;20033;-81
2022/03/10 09:43:03;;;;;;;15.70;10.40;;;;;;;4.22;64.12;99911.34;5016027;28;20049;-81
2022/03/10 09:45:30;;;;;;;12.82;10.18;;;;;;;4.39;64.33;99926.84;5012318;28;20489;-80
2022/03/10 09:47:55;;;;;;;17.52;10.32;;;;;;;4.35;64.86;99919.44;5026676;28;20108;-81
2022/03/10 09:50:21;;;;;;;12.88;9.85;;;;;;;4.47;64.84;99923.28;5015967;28;20113;-81
2022/03/10 09:52:46;;;;;;;17.20;11.35;;;;;;;4.53;64.64;99933.97;5015709;28;20029;-81
2022/03/10 09:55:15;;;;;;;14.95;10.02;;;;;;;4.60;64.66;99933.22;5016251;28;20049;-80
2022/03/10 09:57:43;;;;;;;20.95;12.23;;;;;;;4.57;64.62;99915.91;5032445;28;20079;-81
2022/03/10 10:00:10;;;;;;;17.33;11.48;;;;;;;4.64;64.90;99916.81;5015981;28;20029;-82
2022/03/10 10:02:37;;;;;;;16.60;10.70;;;;;;;4.69;64.84;99908.31;5031763;28;20301;-81
2022/03/10 10:05:17;;;;;;;18.15;11.75;;;;;;;4.86;64.45;99921.16;5031541;28;20132;-80
2022/03/10 10:07:59;;;;;;;14.85;10.90;;;;;;;4.87;64.85;99916.69;5033249;28;20401;-81
2022/03/10 10:10:29;;;;;;;22.42;11.25;;;;;;;5.00;64.89;99909.69;5031686;28;20026;-81
2022/03/10 10:12:54;;;;;;;17.45;10.93;;;;;;;5.03;65.00;99913.81;5033175;28;20035;-81
2022/03/10 10:15:20;;;;;;;17.45;11.27;;;;;;;5.10;65.01;99904.94;5012247;28;20029;-81
2022/03/10 10:17:55;;;;;;;16.23;10.88;;;;;;;5.16;64.57;99904.19;5024877;28;20029;-81
2022/03/10 10:20:20;;;;;;;18.45;11.13;;;;;;;5.09;64.88;99873.38;5037692;28;20396;-81
2022/03/10 10:22:48;;;;;;;14.95;11.10;;;;;;;5.22;64.81;99881.47;5038024;28;20029;-80
2022/03/10 10:25:19;;;;;;;15.13;10.52;;;;;;;5.41;65.04;99902.00;5037700;28;20049;-81
2022/03/10 10:27:46;;;;;;;17.90;11.02;;;;;;;5.32;64.21;99880.13;5035918;28;20044;-81
2022/03/10 10:30:12;;;;;;;17.02;11.07;;;;;;;5.52;64.57;99895.38;5036967;28;20472;-81
2022/03/10 10:32:49;;;;;;;14.98;9.90;;;;;;;5.63;64.17;99895.69;5037317;28;20028;-81
2022/03/10 10:35:20;;;;;;;15.63;11.20;;;;;;;5.67;63.65;99889.00;5036110;28;20025;-81
2022/03/10 10:37:49;;;;;;;16.98;10.48;;;;;;;5.73;63.91;99893.53;5037972;28;20036;-81
2022/03/10 10:40:31;;;;;;;20.58;12.18;;;;;;;5.80;63.82;99883.81;5036301;28;20041;-81
2022/03/10 10:42:57;;;;;;;19.90;11.27;;;;;;;5.74;63.19;99862.56;5036272;28;20052;-80
2022/03/10 10:45:38;;;;;;;16.92;11.23;;;;;;;5.89;62.96;99887.16;5036494;28;20109;-80
2022/03/10 10:48:08;;;;;;;16.40;11.82;;;;;;;5.90;63.35;99886.13;5037217;28;20045;-81
2022/03/10 10:50:40;;;;;;;17.48;10.52;;;;;;;5.93;63.83;99883.94;5035549;28;20032;-81
2022/03/10 10:53:06;;;;;;;18.73;12.32;;;;;;;5.96;63.73;99880.09;5037145;28;20492;-81
2022/03/10 10:55:36;;;;;;;13.80;10.50;;;;;;;5.93;63.56;99873.34;5036474;28;20036;-82
2022/03/10 10:58:09;;;;;;;15.52;9.85;;;;;;;5.94;64.16;99872.31;5032817;28;20025;-80
2022/03/10 11:00:46;;;;;;;14.73;10.18;;;;;;;5.87;63.85;99847.63;5036401;28;20030;-80
2022/03/10 11:03:22;;;;;;;16.75;11.75;;;;;;;5.88;64.22;99838.66;5019120;28;20032;-81
2022/03/10 11:05:48;;;;;;;16.25;11.43;;;;;;;5.93;64.31;99844.19;5037076;28;20079;-81
2022/03/10 11:08:24;;;;;;;15.90;11.43;;;;;;;6.12;64.26;99860.38;5035410;28;20033;-81
2022/03/10 11:10:51;;;;;;;23.17;11.50;;;;;;;6.11;63.95;99851.63;5037532;28;20033;-81
2022/03/10 11:13:16;;;;;;;13.70;10.65;;;;;;;6.06;64.23;99835.50;5035707;28;20030;-80
2022/03/10 11:15:43;;;;;;;18.98;11.63;;;;;;;6.23;64.18;99857.19;5035955;28;20029;-81
2022/03/10 11:18:13;;;;;;;17.05;11.10;;;;;;;6.16;63.72;99832.50;5035388;28;20033;-80
2022/03/10 11:20:42;;;;;;;16.05;10.38;;;;;;;6.32;63.75;99854.19;5036364;28;20033;-80
2022/03/10 11:23:34;;;;;;;15.35;10.30;;;;;;;6.15;64.24;99821.06;5035224;28;20045;-81
2022/03/10 11:26:13;;;;;;;18.67;11.13;;;;;;;6.35;64.47;99842.38;5034801;28;20037;-81
2022/03/10 11:28:44;;;;;;;13.70;10.30;;;;;;;6.48;64.65;99850.41;5027068;28;20045;-81